createdAt,value
2022-09-17T00:01:20.914Z,98445.50
2022-09-17T00:04:00.306Z,98437.34
2022-09-17T00:06:34.028Z,98436.94
2022-09-17T00:09:07.081Z,98441.59
2022-09-17T00:11:41.225Z,98437.53
2022-09-17T00:14:16.216Z,98439.34
2022-09-17T00:16:49.330Z,98433.03
2022-09-17T00:19:23.020Z,98436.84
2022-09-17T00:21:54.569Z,98439.69
2022-09-17T00:24:26.146Z,98449.06
2022-09-17T00:26:57.746Z,98457.34
2022-09-17T00:29:29.403Z,98449.66
2022-09-17T00:32:01.103Z,98446.19
2022-09-17T00:34:32.734Z,98446.75
2022-09-17T00:37:07.284Z,98446.31
2022-09-17T00:39:38.919Z,98444.69
2022-09-17T00:42:13.058Z,98447.28
2022-09-17T00:44:53.398Z,98450.94
2022-09-17T00:47:29.018Z,98451.75
2022-09-17T00:50:15.202Z,98442.41
2022-09-17T00:52:51.369Z,98448.50
2022-09-17T00:55:31.622Z,98447.50
2022-09-17T00:58:06.146Z,98451.13
2022-09-17T01:00:37.911Z,98446.16
2022-09-17T01:03:09.810Z,98450.69
2022-09-17T01:05:50.019Z,98457.38
2022-09-17T01:08:35.400Z,98454.47
2022-09-17T01:11:18.950Z,98449.19
2022-09-17T01:14:11.817Z,98445.09
2022-09-17T01:16:58.123Z,98455.06
2022-09-17T01:19:58.195Z,98460.72
2022-09-17T01:23:14.614Z,98460.13
2022-09-17T01:26:35.522Z,98464.81
2022-09-17T01:29:25.316Z,98463.34
2022-09-17T01:32:12.767Z,98465.19
2022-09-17T01:35:24.773Z,98470.22
2022-09-17T01:38:11.957Z,98472.03
2022-09-17T01:40:56.458Z,98479.94
2022-09-17T01:43:36.261Z,98477.13
2022-09-17T01:46:17.209Z,98474.88
2022-09-17T01:48:52.092Z,98473.03
2022-09-17T01:51:26.527Z,98469.59
2022-09-17T01:54:07.462Z,98472.19
2022-09-17T01:56:56.326Z,98467.91
2022-09-17T01:59:33.738Z,98464.25
2022-09-17T02:02:18.502Z,98468.50
2022-09-17T02:05:22.269Z,98468.50
2022-09-17T02:07:59.193Z,98468.50
2022-09-17T02:10:36.926Z,98480.09
2022-09-17T02:13:22.781Z,98483.16
2022-09-17T02:16:02.219Z,98487.44
2022-09-17T02:18:46.576Z,98492.09
2022-09-17T02:21:28.897Z,98492.09
2022-09-17T02:24:23.062Z,98480.09
2022-09-17T02:27:11.671Z,98483.84
2022-09-17T02:29:44.609Z,98485.25
2022-09-17T02:32:16.265Z,98487.06
2022-09-17T02:34:47.853Z,98481.41
2022-09-17T02:37:19.575Z,98484.03
2022-09-17T02:39:51.231Z,98479.97
2022-09-17T02:42:32.320Z,98478.09
2022-09-17T02:45:25.366Z,98481.53
2022-09-17T02:48:32.559Z,98481.97
2022-09-17T02:51:35.239Z,98484.53
2022-09-17T02:54:18.551Z,98482.09
2022-09-17T02:57:05.031Z,98475.91
2022-09-17T03:00:09.492Z,98473.44
2022-09-17T03:02:47.250Z,98476.91
2022-09-17T03:05:21.871Z,98478.72
2022-09-17T03:07:56.799Z,98478.38
2022-09-17T03:10:30.790Z,98473.16
2022-09-17T03:13:02.427Z,98475.88
2022-09-17T03:15:34.167Z,98472.47
2022-09-17T03:18:05.815Z,98467.44
2022-09-17T03:20:37.695Z,98455.88
2022-09-17T03:23:09.258Z,98450.44
2022-09-17T03:25:40.899Z,98450.50
2022-09-17T03:28:16.594Z,98449.84
2022-09-17T03:30:48.201Z,98457.41
2022-09-17T03:33:20.134Z,98450.91
2022-09-17T03:35:51.759Z,98436.88
2022-09-17T03:38:24.054Z,98443.00
2022-09-17T03:41:04.082Z,98436.72
2022-09-17T03:43:35.734Z,98437.34
2022-09-17T03:46:07.783Z,98431.47
2022-09-17T03:48:39.774Z,98435.00
2022-09-17T03:51:11.689Z,98433.34
2022-09-17T03:53:43.316Z,98428.06
2022-09-17T03:56:15.025Z,98430.78
2022-09-17T03:58:46.601Z,98421.22
2022-09-17T04:01:18.407Z,98414.75
2022-09-17T04:03:50.070Z,98415.16
2022-09-17T04:06:21.903Z,98419.66
2022-09-17T04:08:53.606Z,98422.94
2022-09-17T04:11:25.290Z,98422.31
2022-09-17T04:13:56.952Z,98426.19
2022-09-17T04:16:28.647Z,98430.47
2022-09-17T04:19:00.447Z,98418.84
2022-09-17T04:21:32.225Z,98423.94
2022-09-17T04:24:04.034Z,98419.66
2022-09-17T04:26:35.663Z,98415.22
2022-09-17T04:29:07.302Z,98417.66
2022-09-17T04:31:39.023Z,98416.88
2022-09-17T04:34:10.611Z,98412.41
2022-09-17T04:36:42.208Z,98415.03
2022-09-17T04:39:13.799Z,98405.56
2022-09-17T04:41:45.781Z,98394.94
2022-09-17T04:44:17.402Z,98397.75
2022-09-17T04:46:49.046Z,98398.78
2022-09-17T04:49:20.624Z,98398.94
2022-09-17T04:51:52.215Z,98402.81
2022-09-17T04:54:24.237Z,98401.59
2022-09-17T04:56:55.846Z,98398.59
2022-09-17T04:59:27.425Z,98397.00
2022-09-17T05:02:01.067Z,98395.78
2022-09-17T05:04:32.677Z,98385.59
2022-09-17T05:07:04.473Z,98395.34
2022-09-17T05:09:36.546Z,98394.34
2022-09-17T05:12:08.133Z,98392.06
2022-09-17T05:14:42.538Z,98395.34
2022-09-17T05:17:14.167Z,98390.88
2022-09-17T05:19:46.193Z,98389.88
2022-09-17T05:22:21.425Z,98386.84
2022-09-17T05:24:53.362Z,98386.06
2022-09-17T05:27:25.016Z,98386.50
2022-09-17T05:29:56.579Z,98383.63
2022-09-17T05:32:28.233Z,98397.91
2022-09-17T05:35:02.548Z,98394.25
2022-09-17T05:37:37.508Z,98394.25
2022-09-17T05:40:10.273Z,98397.94
2022-09-17T05:42:42.046Z,98398.59
2022-09-17T05:45:13.954Z,98403.47
2022-09-17T05:47:45.565Z,98407.38
2022-09-17T05:50:17.349Z,98408.19
2022-09-17T05:52:49.104Z,98402.34
2022-09-17T05:55:22.495Z,98408.44
2022-09-17T05:57:54.160Z,98401.72
2022-09-17T06:00:25.848Z,98419.25
2022-09-17T06:02:57.960Z,98416.38
2022-09-17T06:05:29.590Z,98428.38
2022-09-17T06:08:01.301Z,98425.34
2022-09-17T06:10:39.377Z,98431.03
2022-09-17T06:13:11.030Z,98436.75
2022-09-17T06:15:42.625Z,98444.47
2022-09-17T06:18:14.256Z,98444.28
2022-09-17T06:20:56.732Z,98443.66
2022-09-17T06:23:33.171Z,98446.53
2022-09-17T06:26:06.246Z,98459.53
2022-09-17T06:28:41.521Z,98468.88
2022-09-17T06:31:14.078Z,98476.84
2022-09-17T06:33:45.811Z,98477.00
2022-09-17T06:36:17.509Z,98496.91
2022-09-17T06:38:49.159Z,98493.41
2022-09-17T06:41:20.933Z,98496.66
2022-09-17T06:43:56.948Z,98503.63
2022-09-17T06:46:28.582Z,98497.75
2022-09-17T06:49:00.291Z,98504.84
2022-09-17T06:51:31.901Z,98509.91
2022-09-17T06:54:03.517Z,98498.88
2022-09-17T06:56:35.154Z,98505.22
2022-09-17T06:59:06.741Z,98505.81
2022-09-17T07:01:38.385Z,98510.53
2022-09-17T07:04:10.107Z,98517.06
2022-09-17T07:06:43.490Z,98515.00
2022-09-17T07:09:15.086Z,98519.03
2022-09-17T07:11:46.671Z,98526.59
2022-09-17T07:14:19.210Z,98519.72
2022-09-17T07:16:52.778Z,98523.38
2022-09-17T07:19:24.436Z,98517.94
2022-09-17T07:21:56.012Z,98516.09
2022-09-17T07:24:32.623Z,98513.09
2022-09-17T07:27:04.666Z,98511.50
2022-09-17T07:29:36.783Z,98532.09
2022-09-17T07:32:08.440Z,98526.41
2022-09-17T07:34:40.166Z,98527.66
2022-09-17T07:37:11.717Z,98516.66
2022-09-17T07:39:44.134Z,98520.94
2022-09-17T07:42:15.766Z,98518.31
2022-09-17T07:44:47.666Z,98512.81
2022-09-17T07:47:20.027Z,98504.91
2022-09-17T07:49:51.669Z,98504.94
2022-09-17T07:52:23.273Z,98501.50
2022-09-17T07:54:54.850Z,98502.34
2022-09-17T07:57:26.841Z,98492.78
2022-09-17T07:59:58.494Z,98492.41
2022-09-17T08:02:30.210Z,98489.16
2022-09-17T08:05:04.924Z,98476.94
2022-09-17T08:07:36.383Z,98470.22
2022-09-17T08:10:08.339Z,98461.00
2022-09-17T08:12:39.917Z,98455.94
2022-09-17T08:15:11.532Z,98453.47
2022-09-17T08:17:46.949Z,98449.78
2022-09-17T08:20:19.200Z,98450.41
2022-09-17T08:22:50.753Z,98444.88
2022-09-17T08:25:22.444Z,98449.75
2022-09-17T08:27:57.774Z,98455.63
2022-09-17T08:30:29.411Z,98458.88
2022-09-17T08:33:00.988Z,98462.16
2022-09-17T08:35:32.617Z,98467.38
2022-09-17T08:38:04.338Z,98466.19
2022-09-17T08:40:45.926Z,98471.72
2022-09-17T08:43:19.657Z,98476.44
2022-09-17T08:45:59.225Z,98487.25
2022-09-17T08:49:06.654Z,98482.16
2022-09-17T08:51:56.427Z,98486.66
2022-09-17T08:54:36.562Z,98494.22
2022-09-17T08:57:34.411Z,98495.31
2022-09-17T09:00:13.649Z,98497.00
2022-09-17T09:03:12.930Z,98500.59
2022-09-17T09:05:48.116Z,98504.22
2022-09-17T09:08:30.677Z,98512.56
2022-09-17T09:11:11.489Z,98511.53
2022-09-17T09:13:53.179Z,98517.75
2022-09-17T09:16:27.192Z,98514.31
2022-09-17T09:19:22.014Z,98539.63
2022-09-17T09:22:13.095Z,98546.94
2022-09-17T09:24:54.236Z,98551.81
2022-09-17T09:27:32.836Z,98561.41
2022-09-17T09:30:10.540Z,98564.28
2022-09-17T09:32:52.439Z,98578.13
2022-09-17T09:35:27.672Z,98571.78
2022-09-17T09:38:35.646Z,98572.91
2022-09-17T09:41:22.453Z,98570.25
2022-09-17T09:44:04.819Z,98576.28
2022-09-17T09:46:48.132Z,98582.63
2022-09-17T09:49:43.356Z,98569.78
2022-09-17T09:52:32.810Z,98573.06
2022-09-17T09:55:38.608Z,98568.16
2022-09-17T09:58:35.662Z,98560.34
2022-09-17T10:01:16.122Z,98564.22
2022-09-17T10:03:51.883Z,98567.88
2022-09-17T10:06:24.033Z,98562.84
2022-09-17T10:08:55.554Z,98565.31
2022-09-17T10:11:29.450Z,98559.00
2022-09-17T10:14:22.867Z,98549.25
2022-09-17T10:17:15.373Z,98557.72
2022-09-17T10:20:00.180Z,98558.94
2022-09-17T10:22:36.922Z,98552.53
2022-09-17T10:25:28.647Z,98552.94
2022-09-17T10:28:04.571Z,98555.94
2022-09-17T10:30:36.302Z,98537.91
2022-09-17T10:33:36.909Z,98543.56
2022-09-17T10:36:13.541Z,98536.88
2022-09-17T10:38:46.355Z,98539.78
2022-09-17T10:41:24.916Z,98539.53
2022-09-17T10:43:56.486Z,98523.25
2022-09-17T10:46:33.802Z,98519.19
2022-09-17T10:49:18.065Z,98510.31
2022-09-17T10:51:49.682Z,98500.03
2022-09-17T10:54:58.395Z,98499.53
2022-09-17T10:57:55.195Z,98506.69
2022-09-17T11:00:33.150Z,98501.78
2022-09-17T11:03:31.605Z,98504.56
2022-09-17T11:06:21.678Z,98499.06
2022-09-17T11:09:05.139Z,98494.75
2022-09-17T11:12:12.672Z,98489.28
2022-09-17T11:14:53.359Z,98492.34
2022-09-17T11:17:43.882Z,98504.53
2022-09-17T11:20:32.581Z,98502.25
2022-09-17T11:23:23.634Z,98495.25
2022-09-17T11:26:00.790Z,98506.75
2022-09-17T11:28:53.298Z,98503.63
2022-09-17T11:31:35.889Z,98497.69
2022-09-17T11:34:29.430Z,98498.22
2022-09-17T11:37:12.831Z,98489.22
2022-09-17T11:39:49.164Z,98485.69
2022-09-17T11:42:30.946Z,98487.56
2022-09-17T11:45:39.929Z,98483.03
2022-09-17T11:48:20.663Z,98481.41
2022-09-17T11:51:05.381Z,98477.09
2022-09-17T11:54:06.210Z,98478.16
2022-09-17T11:56:44.859Z,98476.53
2022-09-17T11:59:30.486Z,98475.38
2022-09-17T12:02:09.158Z,98468.09
2022-09-17T12:05:09.989Z,98469.59
2022-09-17T12:08:15.110Z,98461.84
2022-09-17T12:10:53.063Z,98458.03
2022-09-17T12:13:30.158Z,98445.50
2022-09-17T12:16:24.889Z,98450.97
2022-09-17T12:19:16.706Z,98450.16
2022-09-17T12:21:55.971Z,98451.78
2022-09-17T12:24:32.329Z,98447.31
2022-09-17T12:27:30.750Z,98441.84
2022-09-17T12:30:13.375Z,98438.84
2022-09-17T12:32:59.983Z,98439.09
2022-09-17T12:36:03.991Z,98429.38
2022-09-17T12:39:02.887Z,98434.84
2022-09-17T12:41:40.568Z,98425.53
2022-09-17T12:44:35.486Z,98420.34
2022-09-17T12:47:38.167Z,98414.09
2022-09-17T12:50:31.385Z,98414.50
2022-09-17T12:53:27.659Z,98415.31
2022-09-17T12:56:22.150Z,98415.56
2022-09-17T12:59:05.890Z,98413.72
2022-09-17T13:01:58.883Z,98419.19
2022-09-17T13:05:04.261Z,98408.50
2022-09-17T13:07:54.692Z,98408.78
2022-09-17T13:10:52.741Z,98402.53
2022-09-17T13:13:27.219Z,98404.88
2022-09-17T13:16:25.836Z,98409.09
2022-09-17T13:19:16.882Z,98413.72
2022-09-17T13:21:55.624Z,98413.25
2022-09-17T13:24:31.150Z,98414.88
2022-09-17T13:27:04.974Z,98409.19
2022-09-17T13:29:46.141Z,98398.59
2022-09-17T13:32:32.890Z,98400.44
2022-09-17T13:35:13.121Z,98415.81
2022-09-17T13:37:56.605Z,98406.09
2022-09-17T13:40:38.096Z,98419.56
2022-09-17T13:43:12.931Z,98407.94
2022-09-17T13:45:59.550Z,98406.50
2022-09-17T13:48:36.106Z,98398.88
2022-09-17T13:51:33.995Z,98397.94
2022-09-17T13:54:08.515Z,98397.09
2022-09-17T13:56:48.329Z,98399.63
2022-09-17T13:59:24.754Z,98395.84
2022-09-17T14:01:57.926Z,98394.81
2022-09-17T14:04:32.417Z,98403.06
2022-09-17T14:07:23.953Z,98402.88
2022-09-17T14:10:25.856Z,98398.91
2022-09-17T14:13:20.315Z,98404.75
2022-09-17T14:15:58.211Z,98404.09
2022-09-17T14:18:34.148Z,98406.75
2022-09-17T14:21:15.645Z,98402.47
2022-09-17T14:23:54.595Z,98410.69
2022-09-17T14:26:50.703Z,98412.78
2022-09-17T14:30:09.724Z,98419.34
2022-09-17T14:33:03.540Z,98415.41
2022-09-17T14:35:40.148Z,98410.41
2022-09-17T14:38:22.746Z,98407.13
2022-09-17T14:41:04.968Z,98410.06
2022-09-17T14:43:42.342Z,98412.97
2022-09-17T14:46:20.431Z,98414.41
2022-09-17T14:48:52.145Z,98421.25
2022-09-17T14:51:29.532Z,98422.88
2022-09-17T14:54:05.125Z,98423.69
2022-09-17T14:56:45.600Z,98423.34
2022-09-17T14:59:43.353Z,98415.81
2022-09-17T15:02:33.675Z,98418.47
2022-09-17T15:05:17.695Z,98420.03
2022-09-17T15:07:49.621Z,98430.34
2022-09-17T15:10:22.698Z,98436.63
2022-09-17T15:12:58.395Z,98441.94
2022-09-17T15:15:30.349Z,98438.69
2022-09-17T15:18:01.972Z,98439.72
2022-09-17T15:20:33.678Z,98447.59
2022-09-17T15:23:20.394Z,98450.84
2022-09-17T15:25:58.878Z,98445.63
2022-09-17T15:28:43.524Z,98451.00
2022-09-17T15:31:19.930Z,98457.47
2022-09-17T15:33:51.614Z,98461.50
2022-09-17T15:36:27.573Z,98457.41
2022-09-17T15:38:59.501Z,98453.94
2022-09-17T15:41:34.648Z,98452.56
2022-09-17T15:44:31.833Z,98461.44
2022-09-17T15:47:41.207Z,98453.16
2022-09-17T15:50:22.699Z,98456.84
2022-09-17T15:53:09.208Z,98471.56
2022-09-17T15:55:44.366Z,98464.78
2022-09-17T15:58:48.444Z,98473.75
2022-09-17T16:01:31.748Z,98474.03
2022-09-17T16:04:19.031Z,98466.94
2022-09-17T16:06:57.752Z,98479.72
2022-09-17T16:09:43.958Z,98473.75
2022-09-17T16:12:25.081Z,98477.91
2022-09-17T16:14:59.755Z,98474.63
2022-09-17T16:17:37.430Z,98479.19
2022-09-17T16:20:15.884Z,98480.88
2022-09-17T16:22:50.969Z,98479.84
2022-09-17T16:25:27.055Z,98487.44
2022-09-17T16:28:02.506Z,98480.72
2022-09-17T16:30:34.196Z,98489.50
2022-09-17T16:33:06.891Z,98484.78
2022-09-17T16:35:41.397Z,98476.56
2022-09-17T16:38:13.112Z,98475.19
2022-09-17T16:40:49.045Z,98474.16
2022-09-17T16:43:20.768Z,98471.72
2022-09-17T16:46:03.867Z,98480.75
2022-09-17T16:48:35.549Z,98474.63
2022-09-17T16:51:12.188Z,98475.44
2022-09-17T16:53:44.031Z,98479.97
2022-09-17T16:56:18.508Z,98485.41
2022-09-17T16:58:54.750Z,98473.81
2022-09-17T17:01:26.438Z,98479.53
2022-09-17T17:04:00.958Z,98485.88
2022-09-17T17:06:32.480Z,98491.63
2022-09-17T17:09:04.356Z,98494.97
2022-09-17T17:11:35.967Z,98495.56
2022-09-17T17:14:11.491Z,98504.56
2022-09-17T17:16:45.660Z,98500.69
2022-09-17T17:19:17.892Z,98497.00
2022-09-17T17:21:52.920Z,98496.44
2022-09-17T17:24:24.638Z,98500.09
2022-09-17T17:26:56.247Z,98502.16
2022-09-17T17:29:27.862Z,98503.81
2022-09-17T17:31:59.455Z,98506.63
2022-09-17T17:34:31.630Z,98507.28
2022-09-17T17:37:03.195Z,98509.50
2022-09-17T17:39:34.835Z,98517.88
2022-09-17T17:42:07.106Z,98515.44
2022-09-17T17:44:38.786Z,98520.41
2022-09-17T17:47:10.380Z,98531.66
2022-09-17T17:49:41.994Z,98534.72
2022-09-17T17:52:13.589Z,98535.34
2022-09-17T17:54:45.247Z,98539.47
2022-09-17T17:57:16.882Z,98546.63
2022-09-17T17:59:48.509Z,98546.03
2022-09-17T18:02:20.174Z,98549.94
2022-09-17T18:04:51.903Z,98554.03
2022-09-17T18:07:23.543Z,98554.63
2022-09-17T18:09:55.164Z,98560.75
2022-09-17T18:12:27.274Z,98558.34
2022-09-17T18:14:59.209Z,98568.75
2022-09-17T18:17:31.547Z,98574.44
2022-09-17T18:20:06.750Z,98582.19
2022-09-17T18:22:38.413Z,98578.94
2022-09-17T18:25:10.161Z,98581.56
2022-09-17T18:27:43.010Z,98584.63
2022-09-17T18:30:14.824Z,98577.06
2022-09-17T18:32:49.118Z,98577.28
2022-09-17T18:35:20.944Z,98581.56
2022-09-17T18:37:52.553Z,98574.63
2022-09-17T18:40:24.222Z,98577.06
2022-09-17T18:42:58.997Z,98579.91
2022-09-17T18:45:30.800Z,98580.72
2022-09-17T18:48:05.424Z,98584.38
2022-09-17T18:50:36.929Z,98588.84
2022-09-17T18:53:08.523Z,98586.19
2022-09-17T18:55:46.730Z,98579.66
2022-09-17T18:58:21.274Z,98587.41
2022-09-17T19:00:53.107Z,98591.88
2022-09-17T19:03:24.849Z,98599.00
2022-09-17T19:06:00.151Z,98594.34
2022-09-17T19:08:32.363Z,98596.53
2022-09-17T19:11:07.303Z,98592.28
2022-09-17T19:13:44.289Z,98597.16
2022-09-17T19:16:19.188Z,98606.31
2022-09-17T19:18:53.069Z,98600.00
2022-09-17T19:21:24.803Z,98603.47
2022-09-17T19:23:56.401Z,98599.56
2022-09-17T19:26:33.292Z,98599.34
2022-09-17T19:29:20.004Z,98595.47
2022-09-17T19:31:54.953Z,98601.75
2022-09-17T19:34:38.180Z,98593.78
2022-09-17T19:37:09.837Z,98594.44
2022-09-17T19:39:41.502Z,98596.81
2022-09-17T19:42:13.244Z,98595.78
2022-09-17T19:44:44.904Z,98599.03
2022-09-17T19:47:16.534Z,98590.06
2022-09-17T19:49:50.914Z,98593.69
2022-09-17T19:52:26.606Z,98589.63
2022-09-17T19:54:58.162Z,98595.25
2022-09-17T19:57:29.862Z,98586.50
2022-09-17T20:00:01.620Z,98591.97
2022-09-17T20:02:42.166Z,98585.03
2022-09-17T20:05:13.829Z,98592.56
2022-09-17T20:07:45.536Z,98595.84
2022-09-17T20:10:17.152Z,98596.22
2022-09-17T20:12:48.828Z,98594.22
2022-09-17T20:15:20.524Z,98593.28
2022-09-17T20:17:52.237Z,98582.50
2022-09-17T20:20:28.329Z,98584.75
2022-09-17T20:22:59.963Z,98589.41
2022-09-17T20:25:31.534Z,98587.38
2022-09-17T20:28:04.066Z,98584.75
2022-09-17T20:30:35.675Z,98575.81
2022-09-17T20:33:07.329Z,98585.63
2022-09-17T20:35:39.156Z,98584.81
2022-09-17T20:41:09.695Z,98582.50
2022-09-17T20:43:43.655Z,98589.84
2022-09-17T20:46:16.709Z,98577.81
2022-09-17T20:48:52.597Z,98589.91
2022-09-17T20:51:26.839Z,98588.91
2022-09-17T20:53:59.530Z,98589.28
2022-09-17T20:56:35.320Z,98593.09
2022-09-17T20:59:24.862Z,98590.44
2022-09-17T21:02:00.979Z,98580.91
2022-09-17T21:04:32.857Z,98581.09
2022-09-17T21:07:04.910Z,98577.00
2022-09-17T21:09:41.843Z,98574.97
2022-09-17T21:12:13.546Z,98574.16
2022-09-17T21:14:45.227Z,98574.31
2022-09-17T21:17:19.716Z,98572.47
2022-09-17T21:19:52.567Z,98569.00
2022-09-17T21:22:24.147Z,98573.97
2022-09-17T21:24:57.213Z,98574.53
2022-09-17T21:27:31.818Z,98576.34
2022-09-17T21:30:06.373Z,98577.97
2022-09-17T21:32:38.250Z,98575.94
2022-09-17T21:35:09.883Z,98570.28
2022-09-17T21:37:41.455Z,98577.41
2022-09-17T21:40:13.141Z,98576.72
2022-09-17T21:42:44.759Z,98565.69
2022-09-17T21:45:16.381Z,98577.78
2022-09-17T21:47:47.962Z,98576.03
2022-09-17T21:50:19.635Z,98573.09
2022-09-17T21:52:51.243Z,98579.72
2022-09-17T21:55:22.865Z,98590.81
2022-09-17T21:57:54.502Z,98592.78
2022-09-17T22:00:26.813Z,98589.00
2022-09-17T22:02:58.896Z,98583.06
2022-09-17T22:05:32.916Z,98587.94
2022-09-17T22:08:05.578Z,98592.19
2022-09-17T22:10:39.265Z,98595.84
2022-09-17T22:13:13.613Z,98596.38
2022-09-17T22:15:56.290Z,98597.59
2022-09-17T22:18:27.990Z,98588.28
2022-09-17T22:21:01.918Z,98587.09
2022-09-17T22:23:33.521Z,98582.44
2022-09-17T22:26:06.926Z,98579.25
2022-09-17T22:28:38.619Z,98582.50
2022-09-17T22:31:12.401Z,98576.63
2022-09-17T22:33:46.348Z,98574.16
2022-09-17T22:36:21.125Z,98575.97
2022-09-17T22:38:56.585Z,98571.50
2022-09-17T22:41:29.470Z,98577.44
2022-09-17T22:44:05.387Z,98576.63
2022-09-17T22:46:41.877Z,98575.88
2022-09-17T22:49:14.385Z,98567.53
2022-09-17T22:51:47.186Z,98568.19
2022-09-17T22:54:22.438Z,98562.69
2022-09-17T22:56:54.297Z,98565.78
2022-09-17T22:59:28.902Z,98564.56
2022-09-17T23:02:03.205Z,98562.16
2022-09-17T23:04:34.892Z,98564.56
2022-09-17T23:07:09.114Z,98561.56
2022-09-17T23:09:40.698Z,98560.34
2022-09-17T23:12:12.364Z,98553.88
2022-09-17T23:14:43.920Z,98551.19
2022-09-17T23:17:15.610Z,98553.66
2022-09-17T23:19:47.190Z,98563.81
2022-09-17T23:22:20.955Z,98551.81
2022-09-17T23:24:52.571Z,98563.22
2022-09-17T23:27:24.221Z,98548.78
2022-09-17T23:29:55.797Z,98556.16
2022-09-17T23:32:27.624Z,98545.38
2022-09-17T23:34:59.219Z,98546.38
2022-09-17T23:37:33.328Z,98536.63
2022-09-17T23:40:07.016Z,98535.63
2022-09-17T23:42:40.751Z,98542.97
2022-09-17T23:45:12.329Z,98530.16
2022-09-17T23:47:43.966Z,98529.59
2022-09-17T23:50:15.666Z,98533.88
2022-09-17T23:52:47.265Z,98519.78
2022-09-17T23:55:18.827Z,98514.88
2022-09-17T23:57:50.461Z,98528.09
